Time;durP1;ratioP1;P1;durP2;ratioP2;P2;SDS_P1;SDS_P2;PMS_P1;PMS_P2;Temp;Humidity;BMP_temperature;BMP_pressure;BME280_temperature;BME280_humidity;BME280_pressure;Samples;Min_cycle;Max_cycle;Signal;HPM_P1;HPM_P2
2023/02/04 00:00:36;;;;;;;4.63;1.30;;;;;;;13.83;49.93;99846.31;5051704;28;20048;-59
2023/02/04 00:03:05;;;;;;;2.90;1.30;;;;;;;13.77;49.96;99834.25;5052028;28;20068;-59
2023/02/04 00:05:34;;;;;;;3.72;1.35;;;;;;;13.72;49.89;99836.44;5051430;28;20099;-60
2023/02/04 00:08:03;;;;;;;4.07;1.50;;;;;;;13.73;49.90;99841.69;5051549;28;20516;-62
2023/02/04 00:10:32;;;;;;;2.55;1.20;;;;;;;13.69;50.03;99837.53;5051559;28;20040;-60
2023/02/04 00:13:00;;;;;;;3.33;1.30;;;;;;;13.68;50.01;99843.00;5051517;28;20049;-60
2023/02/04 00:15:29;;;;;;;3.70;1.40;;;;;;;13.64;50.00;99831.69;5051508;28;20559;-60
2023/02/04 00:17:57;;;;;;;4.03;1.35;;;;;;;13.62;49.70;99830.97;5051286;28;20049;-61
2023/02/04 00:20:25;;;;;;;5.00;1.40;;;;;;;13.57;49.84;99841.19;5051687;28;20103;-60
2023/02/04 00:22:53;;;;;;;4.43;1.00;;;;;;;13.54;50.01;99828.03;5051462;28;20045;-60
2023/02/04 00:25:23;;;;;;;3.25;1.15;;;;;;;13.50;50.01;99833.75;5051249;28;20128;-60
2023/02/04 00:27:51;;;;;;;5.97;1.45;;;;;;;13.49;50.00;99838.25;5051296;28;20047;-61
2023/02/04 00:30:20;;;;;;;3.17;1.20;;;;;;;13.45;49.88;99831.44;5051262;28;20056;-60
2023/02/04 00:32:48;;;;;;;3.85;1.40;;;;;;;13.43;50.04;99833.41;5051328;28;20521;-60
2023/02/04 00:35:16;;;;;;;3.78;1.27;;;;;;;13.39;49.88;99827.41;5051301;28;20073;-59
2023/02/04 00:37:44;;;;;;;4.32;1.25;;;;;;;13.36;49.91;99819.63;5051239;28;20045;-61
2023/02/04 00:40:13;;;;;;;3.78;1.25;;;;;;;13.33;50.02;99821.69;5051201;28;20076;-60
2023/02/04 00:42:42;;;;;;;3.33;1.40;;;;;;;13.32;49.93;99817.31;5051249;28;20049;-60
2023/02/04 00:45:12;;;;;;;4.30;1.50;;;;;;;13.27;50.06;99798.91;5051196;28;20045;-60
2023/02/04 00:47:40;;;;;;;4.60;1.35;;;;;;;13.24;50.23;99796.47;5051090;28;20053;-60
2023/02/04 00:50:09;;;;;;;4.43;1.30;;;;;;;13.25;50.08;99805.38;5051342;28;20110;-60
2023/02/04 00:52:37;;;;;;;5.93;1.50;;;;;;;13.23;50.02;99796.59;5054147;28;20462;-60
2023/02/04 00:55:09;;;;;;;3.72;1.15;;;;;;;13.16;50.01;99783.66;5055002;28;20056;-60
2023/02/04 00:57:37;;;;;;;2.30;1.00;;;;;;;13.18;50.30;99781.69;5054761;28;20077;-61
2023/02/04 01:00:08;;;;;;;3.97;1.60;;;;;;;13.15;50.18;99776.59;5054923;28;20449;-58
2023/02/04 01:02:36;;;;;;;3.60;1.25;;;;;;;13.12;50.31;99782.19;5054763;28;20128;-60
2023/02/04 01:05:05;;;;;;;2.92;1.00;;;;;;;13.10;50.39;99780.59;5054840;28;20068;-60
2023/02/04 01:07:33;;;;;;;4.10;1.17;;;;;;;13.10;50.37;99776.09;5054622;28;20049;-60
2023/02/04 01:10:02;;;;;;;3.97;1.23;;;;;;;13.07;50.48;99776.34;5054461;28;20518;-58
2023/02/04 01:12:30;;;;;;;3.85;1.40;;;;;;;13.04;50.34;99765.03;5054607;28;20053;-59
2023/02/04 01:14:59;;;;;;;3.72;1.42;;;;;;;13.02;50.42;99767.78;5054422;28;20054;-59
2023/02/04 01:17:28;;;;;;;4.35;1.33;;;;;;;13.01;50.53;99768.78;5054486;28;20052;-59
2023/02/04 01:19:57;;;;;;;9.00;1.65;;;;;;;13.00;50.48;99760.88;5054464;28;20053;-59
2023/02/04 01:22:25;;;;;;;3.22;1.15;;;;;;;12.97;50.60;99767.31;5054453;28;20044;-60
2023/02/04 01:24:53;;;;;;;4.13;1.40;;;;;;;12.95;50.38;99779.97;5054250;28;20054;-59
2023/02/04 01:27:22;;;;;;;5.28;1.50;;;;;;;12.90;50.56;99763.41;5054193;28;20048;-59
2023/02/04 01:29:50;;;;;;;4.50;1.45;;;;;;;12.98;50.39;99785.09;5054211;28;20383;-59
2023/02/04 01:32:18;;;;;;;5.63;1.80;;;;;;;12.91;50.43;99778.50;5054177;28;20406;-61
2023/02/04 01:34:47;;;;;;;4.18;1.60;;;;;;;12.87;50.43;99780.56;5054076;28;20555;-60
2023/02/04 01:37:16;;;;;;;3.85;1.30;;;;;;;12.87;50.57;99777.03;5053888;28;20053;-59
2023/02/04 01:39:44;;;;;;;4.03;1.38;;;;;;;12.85;50.43;99774.47;5054038;28;20045;-59
2023/02/04 01:42:13;;;;;;;4.13;1.20;;;;;;;12.84;50.56;99766.56;5053989;28;20073;-59
2023/02/04 01:44:41;;;;;;;2.92;1.20;;;;;;;12.83;50.59;99760.34;5053965;28;20045;-60
2023/02/04 01:47:10;;;;;;;3.75;1.33;;;;;;;12.82;50.75;99765.81;5054196;28;20098;-61
2023/02/04 01:49:38;;;;;;;3.42;1.00;;;;;;;12.82;50.86;99768.50;5053833;28;20047;-60
2023/02/04 01:52:10;;;;;;;4.45;1.48;;;;;;;12.79;50.81;99774.09;5053806;28;20044;-60
2023/02/04 01:54:38;;;;;;;2.47;0.90;;;;;;;12.77;50.78;99773.38;5053759;28;20049;-60
2023/02/04 01:57:13;;;;;;;4.07;1.52;;;;;;;12.78;50.79;99788.44;5053799;28;20055;-58
2023/02/04 01:59:43;;;;;;;2.42;1.30;;;;;;;12.77;51.04;99781.38;5053740;28;20045;-59
2023/02/04 02:02:38;;;;;;;3.33;1.50;;;;;;;12.76;50.89;99787.72;5053600;28;20124;-59
2023/02/04 02:05:07;;;;;;;5.18;1.30;;;;;;;12.75;50.95;99792.22;5053704;28;20102;-59
2023/02/04 02:07:37;;;;;;;2.75;1.20;;;;;;;12.74;50.81;99794.97;5053510;28;20051;-59
2023/02/04 02:10:08;;;;;;;4.22;1.40;;;;;;;12.74;50.75;99797.66;5053488;28;20044;-59
2023/02/04 02:12:36;;;;;;;4.10;1.25;;;;;;;12.72;50.85;99807.63;5053570;28;20118;-58
2023/02/04 02:15:05;;;;;;;2.47;1.20;;;;;;;12.71;50.90;99811.28;5053261;28;20076;-60
2023/02/04 02:17:33;;;;;;;3.38;1.33;;;;;;;12.71;51.24;99797.91;5053313;28;20559;-60
2023/02/04 02:20:02;;;;;;;3.78;1.20;;;;;;;12.74;51.00;99797.66;5053201;28;20041;-59
2023/02/04 02:22:36;;;;;;;3.92;1.23;;;;;;;12.70;50.96;99809.59;5053199;28;20052;-60
2023/02/04 02:25:10;;;;;;;2.85;1.13;;;;;;;12.63;51.08;99805.66;5053147;28;20510;-59
2023/02/04 02:27:38;;;;;;;2.78;1.25;;;;;;;12.64;50.96;99816.25;5053018;28;20056;-59
2023/02/04 02:30:09;;;;;;;3.72;1.25;;;;;;;12.64;51.14;99807.34;5053138;28;20060;-59
2023/02/04 02:32:39;;;;;;;3.50;1.30;;;;;;;12.59;50.97;99810.41;5053124;28;20040;-58
2023/02/04 02:35:08;;;;;;;2.97;1.23;;;;;;;12.59;51.20;99810.41;5053019;28;20044;-61
2023/02/04 02:37:36;;;;;;;3.35;1.10;;;;;;;12.58;51.13;99796.16;5052990;28;20083;-60
2023/02/04 02:40:06;;;;;;;4.47;1.33;;;;;;;12.55;51.09;99796.41;5053188;28;20056;-60
2023/02/04 02:42:36;;;;;;;2.50;1.00;;;;;;;12.56;51.04;99798.09;5052773;28;20482;-59
2023/02/04 02:45:11;;;;;;;3.25;1.42;;;;;;;12.55;51.14;99799.09;5052869;28;20573;-58
2023/02/04 02:47:39;;;;;;;5.05;1.27;;;;;;;12.53;51.01;99789.44;5052718;28;20461;-59
2023/02/04 02:50:12;;;;;;;4.55;1.48;;;;;;;12.52;51.35;99777.91;5052760;28;20120;-59
2023/02/04 02:52:40;;;;;;;;;;;;;;;12.53;51.33;99773.41;5053079;28;20094;-58
2023/02/04 02:55:14;;;;;;;4.03;1.23;;;;;;;12.51;51.01;99778.88;5052704;28;19946;-59
2023/02/04 02:57:45;;;;;;;3.17;1.35;;;;;;;12.50;51.45;99747.75;5052517;28;20037;-60
2023/02/04 03:00:15;;;;;;;3.40;1.13;;;;;;;12.44;51.23;99753.53;5052520;28;20063;-59
2023/02/04 03:02:44;;;;;;;3.25;1.10;;;;;;;12.45;51.11;99744.56;5052485;28;20048;-58
2023/02/04 03:05:13;;;;;;;3.33;1.00;;;;;;;12.45;51.24;99749.94;5052413;28;20145;-60
2023/02/04 03:07:41;;;;;;;3.60;1.00;;;;;;;12.42;51.21;99771.53;5052243;28;20037;-60
2023/02/04 03:10:11;;;;;;;4.13;1.27;;;;;;;12.39;51.35;99766.41;5052460;28;20124;-59
2023/02/04 03:12:40;;;;;;;2.63;1.17;;;;;;;12.43;51.18;99781.25;5052424;28;20124;-61
2023/02/04 03:15:10;;;;;;;2.50;1.20;;;;;;;12.41;51.54;99783.19;5051563;28;20049;-59
2023/02/04 03:17:39;;;;;;;2.88;1.27;;;;;;;12.39;51.02;99773.59;5052139;28;20037;-60
2023/02/04 03:20:08;;;;;;;3.58;1.20;;;;;;;12.39;51.58;99782.47;5052219;28;20469;-60
2023/02/04 03:22:37;;;;;;;3.65;1.17;;;;;;;12.36;51.50;99774.69;5052222;28;20049;-58
2023/02/04 03:25:05;;;;;;;4.65;1.10;;;;;;;12.36;51.29;99774.69;5052081;28;20049;-60
2023/02/04 03:27:36;;;;;;;2.35;1.05;;;;;;;12.33;51.57;99767.72;5051946;28;20041;-59
2023/02/04 03:30:05;;;;;;;4.68;1.27;;;;;;;12.33;51.42;99756.19;5051957;28;20045;-61
2023/02/04 03:32:35;;;;;;;3.75;1.25;;;;;;;12.32;51.56;99752.66;5051963;28;20103;-59
2023/02/04 03:35:03;;;;;;;2.25;1.10;;;;;;;12.31;51.54;99748.28;5051877;28;20045;-60
2023/02/04 03:37:32;;;;;;;3.13;1.15;;;;;;;12.28;51.22;99758.34;5051821;28;20084;-60
2023/02/04 03:40:00;;;;;;;5.05;1.20;;;;;;;12.26;51.25;99750.47;5051970;28;20072;-59
2023/02/04 03:42:28;;;;;;;2.78;1.10;;;;;;;12.26;51.60;99737.09;5051917;28;20049;-59
2023/02/04 03:44:56;;;;;;;2.65;0.90;;;;;;;12.22;51.37;99742.75;5051854;28;20053;-60
2023/02/04 03:47:24;;;;;;;3.75;1.20;;;;;;;12.22;51.60;99745.44;5051614;28;20071;-60
2023/02/04 03:49:54;;;;;;;3.53;1.05;;;;;;;12.20;51.41;99736.69;5051760;28;20041;-60
2023/02/04 03:52:22;;;;;;;2.33;0.82;;;;;;;12.19;51.66;99745.69;5051776;28;20049;-60
2023/02/04 03:54:50;;;;;;;3.53;1.05;;;;;;;12.16;51.50;99732.50;5051719;28;20041;-60
2023/02/04 03:57:18;;;;;;;3.25;1.10;;;;;;;12.13;51.73;99746.13;5051684;28;20460;-60
2023/02/04 03:59:46;;;;;;;3.08;1.00;;;;;;;12.14;51.50;99739.81;5051578;28;20045;-60
2023/02/04 04:02:15;;;;;;;3.00;1.00;;;;;;;12.13;51.67;99732.75;5051738;28;20048;-60
2023/02/04 04:04:43;;;;;;;2.10;0.90;;;;;;;12.12;51.86;99739.06;5051607;28;20390;-60
2023/02/04 04:07:12;;;;;;;3.38;1.10;;;;;;;12.10;51.79;99739.19;5051742;28;20090;-60
2023/02/04 04:09:40;;;;;;;2.90;0.85;;;;;;;12.07;51.89;99739.44;5051657;28;20057;-60
2023/02/04 04:12:09;;;;;;;4.30;1.13;;;;;;;12.06;51.77;99740.38;5051630;28;20075;-61
2023/02/04 04:14:37;;;;;;;4.85;1.02;;;;;;;12.07;52.02;99739.44;5051604;28;20045;-59
2023/02/04 04:17:05;;;;;;;4.30;1.15;;;;;;;12.08;52.37;99741.13;5051412;28;20664;-61
2023/02/04 04:19:34;;;;;;;1.40;0.80;;;;;;;12.15;52.70;99723.66;5051534;28;20037;-61
2023/02/04 04:22:02;;;;;;;2.55;0.93;;;;;;;12.24;52.87;99735.47;5051433;28;20045;-61
2023/02/04 04:24:32;;;;;;;2.92;1.00;;;;;;;12.34;53.19;99731.13;5051513;28;20489;-60
2023/02/04 04:27:00;;;;;;;5.07;1.25;;;;;;;12.45;53.25;99735.66;5053386;28;20483;-60
2023/02/04 04:29:28;;;;;;;4.57;1.00;;;;;;;12.54;53.27;99730.47;5055438;28;20049;-61
2023/02/04 04:31:56;;;;;;;2.75;1.02;;;;;;;12.67;53.09;99734.91;5055330;28;20490;-60
2023/02/04 04:34:25;;;;;;;2.80;1.33;;;;;;;12.79;52.97;99731.28;5055315;28;20406;-60
2023/02/04 04:36:53;;;;;;;2.88;1.00;;;;;;;12.91;52.90;99724.94;5055048;28;20095;-60
2023/02/04 04:39:21;;;;;;;2.75;0.95;;;;;;;13.03;52.68;99728.53;5055078;28;20076;-60
2023/02/04 04:41:51;;;;;;;2.90;1.13;;;;;;;13.15;52.49;99735.56;5055251;28;20052;-61
2023/02/04 04:44:19;;;;;;;2.85;1.00;;;;;;;13.22;52.36;99722.56;5055140;28;20478;-60
2023/02/04 04:46:47;;;;;;;3.15;1.10;;;;;;;13.38;52.31;99723.06;5055092;28;20045;-60
2023/02/04 04:49:16;;;;;;;2.92;1.10;;;;;;;13.49;52.29;99736.44;5054986;28;20071;-60
2023/02/04 04:51:44;;;;;;;4.47;1.23;;;;;;;13.62;52.09;99747.03;5054936;28;20041;-60
2023/02/04 04:54:12;;;;;;;3.65;1.10;;;;;;;13.72;51.95;99726.56;5055088;28;20110;-60
2023/02/04 04:56:40;;;;;;;3.35;1.02;;;;;;;13.85;51.89;99732.59;5055060;28;20068;-60
2023/02/04 04:59:10;;;;;;;2.83;1.10;;;;;;;13.97;51.82;99725.38;5054942;28;20045;-60
2023/02/04 05:01:38;;;;;;;3.17;1.33;;;;;;;14.08;51.73;99716.44;5054698;28;20127;-61
2023/02/04 05:04:06;;;;;;;1.95;0.88;;;;;;;14.19;51.48;99713.75;5054728;28;20049;-60
2023/02/04 05:06:34;;;;;;;3.90;1.05;;;;;;;14.28;51.39;99729.03;5054618;28;20386;-60
2023/02/04 05:09:02;;;;;;;2.25;0.82;;;;;;;14.38;51.35;99713.03;5054652;28;20076;-60
2023/02/04 05:11:30;;;;;;;3.10;1.10;;;;;;;14.47;51.24;99698.88;5054685;28;20052;-60
2023/02/04 05:13:58;;;;;;;2.72;1.00;;;;;;;14.49;51.13;99702.28;5054596;28;20090;-60
2023/02/04 05:16:28;;;;;;;2.10;0.98;;;;;;;14.56;51.04;99698.94;5055099;28;20059;-61
2023/02/04 05:18:56;;;;;;;2.65;0.80;;;;;;;14.62;50.94;99700.25;5054488;28;20041;-60
2023/02/04 05:21:24;;;;;;;5.15;1.15;;;;;;;14.64;50.93;99684.84;5054462;28;20049;-59
2023/02/04 05:23:52;;;;;;;3.42;1.15;;;;;;;14.67;50.92;99697.16;5044761;28;20506;-60
2023/02/04 05:26:20;;;;;;;2.63;0.80;;;;;;;14.68;50.87;99670.22;5043427;28;20099;-59
2023/02/04 05:28:59;;;;;;;2.33;0.77;;;;;;;14.71;50.59;99666.41;5054263;28;20052;-59
2023/02/04 05:31:29;;;;;;;3.72;1.27;;;;;;;14.76;50.57;99670.38;5050879;28;20049;-62
2023/02/04 05:33:58;;;;;;;2.50;0.70;;;;;;;14.82;50.49;99669.84;5034223;28;20061;-60
2023/02/04 05:36:26;;;;;;;2.60;0.90;;;;;;;14.88;50.49;99685.44;5034054;28;20049;-60
2023/02/04 05:38:54;;;;;;;2.53;0.90;;;;;;;14.90;50.51;99706.78;5033314;28;20053;-59
2023/02/04 05:41:22;;;;;;;2.05;0.90;;;;;;;14.99;50.34;99681.81;5043299;28;20040;-60
2023/02/04 05:43:50;;;;;;;1.73;0.70;;;;;;;15.04;50.20;99719.00;5054059;28;20048;-60
2023/02/04 05:46:19;;;;;;;3.63;1.20;;;;;;;15.07;50.13;99710.69;5053798;28;20127;-59
2023/02/04 05:48:48;;;;;;;3.28;1.05;;;;;;;15.08;50.13;99712.38;5053695;28;20493;-61
2023/02/04 05:51:17;;;;;;;4.13;1.13;;;;;;;15.07;50.09;99726.81;5054108;28;20056;-61
2023/02/04 05:53:45;;;;;;;2.38;0.80;;;;;;;15.06;50.12;99730.47;5053854;28;20072;-61
2023/02/04 05:56:13;;;;;;;3.45;1.13;;;;;;;15.00;50.17;99726.47;5053869;28;20113;-60
2023/02/04 05:58:41;;;;;;;1.65;0.75;;;;;;;15.02;50.28;99729.03;5053742;28;20056;-60
2023/02/04 06:01:09;;;;;;;2.25;0.88;;;;;;;15.07;50.13;99724.97;5053731;28;20044;-61
2023/02/04 06:03:37;;;;;;;3.63;1.00;;;;;;;15.09;50.06;99735.56;5053655;28;20049;-60
2023/02/04 06:06:07;;;;;;;1.80;0.90;;;;;;;15.02;50.15;99735.25;5053599;28;20045;-59
2023/02/04 06:08:35;;;;;;;4.07;0.98;;;;;;;14.99;50.11;99750.78;5053534;28;20051;-59
2023/02/04 06:11:04;;;;;;;2.83;1.15;;;;;;;14.95;50.29;99754.69;5053489;28;20111;-61
2023/02/04 06:13:32;;;;;;;2.60;1.00;;;;;;;14.91;50.18;99764.03;5053701;28;20045;-60
2023/02/04 06:16:00;;;;;;;2.13;0.88;;;;;;;14.85;50.30;99763.53;5053410;28;20394;-60
2023/02/04 06:18:28;;;;;;;3.53;0.80;;;;;;;14.81;50.35;99774.69;5053391;28;20425;-60
2023/02/04 06:20:56;;;;;;;1.50;0.70;;;;;;;14.77;50.28;99790.22;5053313;28;20049;-60
2023/02/04 06:23:25;;;;;;;2.22;0.98;;;;;;;14.74;50.23;99790.47;5053345;28;20128;-60
2023/02/04 06:25:54;;;;;;;1.90;0.70;;;;;;;14.69;50.10;99808.81;5053180;28;20040;-60
2023/02/04 06:28:22;;;;;;;1.27;0.57;;;;;;;14.62;50.28;99820.19;5053310;28;20049;-60
2023/02/04 06:30:50;;;;;;;1.55;0.60;;;;;;;14.54;50.03;99820.81;5053070;28;20060;-60
2023/02/04 06:33:20;;;;;;;1.38;0.60;;;;;;;14.49;50.04;99833.78;5053073;28;20045;-60
2023/02/04 06:35:48;;;;;;;1.30;0.63;;;;;;;14.44;49.98;99835.94;5052819;28;20417;-61
2023/02/04 06:38:17;;;;;;;2.50;0.85;;;;;;;14.38;50.00;99849.84;5052209;28;20395;-61
2023/02/04 06:40:48;;;;;;;1.73;0.63;;;;;;;14.33;50.10;99856.47;5052228;28;20053;-60
2023/02/04 06:43:16;;;;;;;1.52;0.70;;;;;;;14.27;50.05;99853.44;5052305;28;20075;-60
2023/02/04 06:45:44;;;;;;;1.15;0.45;;;;;;;14.22;50.08;99852.97;5052243;28;20551;-60
2023/02/04 06:48:12;;;;;;;1.73;0.60;;;;;;;14.15;49.99;99868.69;5052158;28;20061;-61
2023/02/04 06:50:41;;;;;;;1.80;0.70;;;;;;;14.04;50.27;99856.16;5051875;28;20152;-60
2023/02/04 06:53:09;;;;;;;2.78;0.77;;;;;;;14.05;50.20;99857.00;5052090;28;20053;-60
2023/02/04 06:55:37;;;;;;;1.52;0.60;;;;;;;13.96;50.15;99855.91;5051853;28;20052;-60
2023/02/04 06:58:06;;;;;;;1.55;0.65;;;;;;;13.95;50.30;99861.41;5051911;28;20057;-60
2023/02/04 07:00:34;;;;;;;1.50;0.57;;;;;;;13.91;50.03;99876.03;5052116;28;20461;-60
2023/02/04 07:03:03;;;;;;;1.77;0.70;;;;;;;13.88;50.21;99881.63;5052560;28;20037;-60
2023/02/04 07:05:31;;;;;;;1.75;0.73;;;;;;;13.85;50.21;99892.59;5052407;28;20114;-61
2023/02/04 07:07:59;;;;;;;2.08;0.73;;;;;;;13.83;50.24;99883.84;5052408;28;20099;-60
2023/02/04 07:10:27;;;;;;;1.05;0.52;;;;;;;13.78;50.43;99888.69;5052303;28;20124;-60
2023/02/04 07:12:56;;;;;;;1.15;0.52;;;;;;;13.78;50.35;99894.06;5052773;28;20083;-60
2023/02/04 07:15:26;;;;;;;2.28;0.80;;;;;;;13.73;50.68;99895.28;5052297;28;20528;-60
2023/02/04 07:17:54;;;;;;;1.70;0.70;;;;;;;13.68;50.19;99902.81;5052272;28;20079;-60
2023/02/04 07:20:23;;;;;;;1.35;0.52;;;;;;;13.67;50.53;99885.03;5052220;28;20044;-60
2023/02/04 07:22:51;;;;;;;0.47;0.35;;;;;;;13.61;50.53;99890.91;5052293;28;20048;-60
2023/02/04 07:25:19;;;;;;;1.70;0.75;;;;;;;13.61;50.33;99901.63;5052183;28;20402;-61
2023/02/04 07:27:48;;;;;;;1.05;0.55;;;;;;;13.58;50.56;99906.34;5052060;28;20049;-60
2023/02/04 07:30:16;;;;;;;1.40;0.77;;;;;;;13.52;50.73;99901.50;5052006;28;20049;-60
2023/02/04 07:32:46;;;;;;;1.35;0.63;;;;;;;13.62;50.79;99911.38;5052148;28;20041;-60
2023/02/04 07:35:14;;;;;;;1.17;0.73;;;;;;;13.69;50.86;99917.06;5051966;28;20079;-60
2023/02/04 07:37:42;;;;;;;1.80;0.73;;;;;;;13.78;50.99;99910.16;5052139;28;20076;-60
2023/02/04 07:40:12;;;;;;;0.85;0.57;;;;;;;13.87;50.75;99925.50;5052004;28;20220;-60
2023/02/04 07:42:40;;;;;;;1.27;0.77;;;;;;;13.97;50.68;99930.00;5051997;28;20051;-59
2023/02/04 07:45:09;;;;;;;1.00;0.52;;;;;;;14.06;50.29;99917.72;5052024;28;20481;-59
2023/02/04 07:47:37;;;;;;;1.45;0.75;;;;;;;14.13;50.24;99929.66;5051893;28;20133;-59
2023/02/04 07:50:07;;;;;;;1.25;0.70;;;;;;;14.21;50.14;99919.16;5051925;28;20044;-59
2023/02/04 07:52:36;;;;;;;2.25;1.00;;;;;;;14.36;49.88;99929.63;5051815;28;20074;-61
2023/02/04 07:55:04;;;;;;;1.92;0.88;;;;;;;14.45;49.93;99921.72;5051870;28;20045;-61
2023/02/04 07:57:32;;;;;;;1.58;0.88;;;;;;;14.54;49.79;99933.53;5051869;28;20127;-59
2023/02/04 08:00:01;;;;;;;2.75;1.10;;;;;;;14.62;49.71;99925.72;5045333;28;20057;-60
2023/02/04 08:02:30;;;;;;;1.83;0.80;;;;;;;14.68;49.53;99935.97;5049880;28;20052;-60
2023/02/04 08:04:58;;;;;;;2.13;0.95;;;;;;;14.72;49.46;99929.34;5031984;28;20052;-61
2023/02/04 08:07:28;;;;;;;1.75;1.10;;;;;;;14.76;49.26;99933.47;5031977;28;20049;-59
2023/02/04 08:09:56;;;;;;;2.38;1.10;;;;;;;14.80;49.13;99950.19;5031784;28;20045;-60
2023/02/04 08:12:24;;;;;;;2.35;1.15;;;;;;;14.76;49.12;99944.22;5031769;28;20042;-60
2023/02/04 08:14:52;;;;;;;2.85;1.20;;;;;;;14.77;49.05;99990.72;5031657;28;20380;-60
2023/02/04 08:17:20;;;;;;;2.63;1.25;;;;;;;14.73;48.92;99968.63;5031754;28;20042;-60
2023/02/04 08:19:49;;;;;;;1.90;1.10;;;;;;;14.69;48.81;99967.19;5031760;28;20052;-60
2023/02/04 08:22:17;;;;;;;3.22;1.35;;;;;;;14.68;48.80;99988.78;5031853;28;20095;-60
2023/02/04 08:24:46;;;;;;;1.50;1.10;;;;;;;14.64;48.96;100004.28;5031613;28;20049;-60
2023/02/04 08:27:15;;;;;;;2.15;1.10;;;;;;;14.60;48.97;99997.47;5031696;28;20518;-59
2023/02/04 08:29:43;;;;;;;2.15;1.23;;;;;;;14.55;48.89;100010.38;5040092;28;20482;-59
2023/02/04 08:32:12;;;;;;;2.97;1.50;;;;;;;14.54;48.85;100024.78;5051381;28;20537;-60
2023/02/04 08:34:40;;;;;;;2.72;1.35;;;;;;;14.50;48.97;100039.44;5051365;28;20041;-62
2023/02/04 08:37:08;;;;;;;4.78;1.58;;;;;;;14.44;48.80;100021.09;5051248;28;20076;-61
2023/02/04 08:39:38;;;;;;;3.42;1.50;;;;;;;14.42;48.89;100031.97;5051275;28;20049;-60
2023/02/04 08:42:07;;;;;;;3.88;1.63;;;;;;;14.39;49.19;100047.47;5051341;28;20107;-58
2023/02/04 08:44:36;;;;;;;3.53;1.60;;;;;;;14.35;49.11;100049.50;5051258;28;20045;-59
2023/02/04 08:47:04;;;;;;;4.90;1.90;;;;;;;14.28;49.34;100051.84;5051390;28;20049;-59
2023/02/04 08:49:32;;;;;;;3.25;1.63;;;;;;;14.25;48.94;100062.81;5051253;28;20045;-59
2023/02/04 08:52:01;;;;;;;3.13;1.60;;;;;;;14.22;49.13;100051.47;5051029;28;20049;-58
2023/02/04 08:54:30;;;;;;;4.65;1.70;;;;;;;14.18;49.23;100056.19;5051108;28;20053;-57
2023/02/04 08:56:58;;;;;;;3.13;1.60;;;;;;;14.15;49.08;100087.78;5051198;28;20048;-61
2023/02/04 08:59:28;;;;;;;5.57;1.63;;;;;;;14.13;49.14;100092.41;5051177;28;20049;-59
2023/02/04 09:01:56;;;;;;;3.67;1.70;;;;;;;14.06;49.52;100062.53;5049483;28;20049;-58
2023/02/04 09:04:24;;;;;;;6.93;1.88;;;;;;;14.06;49.35;100094.72;5050610;28;20045;-58
2023/02/04 09:06:52;;;;;;;7.63;1.70;;;;;;;13.98;49.60;100102.47;5050439;28;20541;-59
2023/02/04 09:09:21;;;;;;;4.40;1.50;;;;;;;13.95;49.73;100094.69;5050453;28;20076;-58
2023/02/04 09:11:51;;;;;;;2.85;1.50;;;;;;;13.94;49.78;100095.66;5050646;28;20055;-57
2023/02/04 09:14:19;;;;;;;4.47;1.60;;;;;;;13.93;49.60;100121.63;5052871;28;20072;-59
2023/02/04 09:16:48;;;;;;;3.95;1.67;;;;;;;13.91;49.56;100122.72;5054359;28;20041;-59
2023/02/04 09:19:22;;;;;;;5.05;1.70;;;;;;;13.87;49.69;100130.13;5053949;28;20053;-57
2023/02/04 09:21:51;;;;;;;3.78;1.60;;;;;;;13.88;49.83;100150.59;5054113;28;20053;-58
2023/02/04 09:24:22;;;;;;;3.83;1.65;;;;;;;13.86;49.66;100151.69;5054100;28;20494;-57
2023/02/04 09:26:51;;;;;;;2.50;1.35;;;;;;;13.83;50.02;100168.88;5054011;28;20128;-57
2023/02/04 09:29:19;;;;;;;3.90;1.80;;;;;;;13.81;50.14;100180.69;5053808;28;20099;-57
2023/02/04 09:31:49;;;;;;;3.13;1.40;;;;;;;13.79;50.00;100180.78;5053983;28;20053;-57
2023/02/04 09:34:18;;;;;;;5.20;1.80;;;;;;;13.79;50.21;100198.69;5053816;28;20490;-58
2023/02/04 09:36:46;;;;;;;3.95;1.55;;;;;;;13.77;50.34;100211.34;5054159;28;20045;-60
2023/02/04 09:39:14;;;;;;;3.50;1.60;;;;;;;13.75;50.45;100233.78;5054067;28;20098;-59
2023/02/04 09:41:43;;;;;;;3.10;1.50;;;;;;;13.77;50.40;100259.59;5054169;28;20462;-59
2023/02/04 09:44:16;;;;;;;7.10;1.98;;;;;;;13.73;50.38;100267.03;5054152;28;20045;-59
2023/02/04 09:46:48;;;;;;;5.93;1.70;;;;;;;13.70;50.51;100281.50;5054178;28;20099;-58
2023/02/04 09:49:18;;;;;;;4.22;1.50;;;;;;;13.68;50.62;100279.88;5053930;28;20047;-58
2023/02/04 09:51:47;;;;;;;3.83;1.50;;;;;;;13.66;50.69;100289.88;5053906;28;20064;-58
2023/02/04 09:54:19;;;;;;;3.33;1.50;;;;;;;13.57;50.39;100296.75;5054018;28;20049;-58
2023/02/04 09:56:49;;;;;;;4.45;1.77;;;;;;;13.57;50.14;100296.75;5053773;28;20041;-57
2023/02/04 09:59:20;;;;;;;6.03;1.42;;;;;;;13.56;50.23;100310.25;5053741;28;20071;-59
2023/02/04 10:01:52;;;;;;;3.70;1.40;;;;;;;13.52;50.18;100316.81;5053727;28;20045;-57
2023/02/04 10:04:22;;;;;;;4.25;1.40;;;;;;;13.50;50.19;100316.91;5053592;28;20052;-58
2023/02/04 10:06:51;;;;;;;6.75;1.50;;;;;;;13.48;50.05;100321.53;5053515;28;20041;-59
2023/02/04 10:09:19;;;;;;;4.50;1.30;;;;;;;13.44;50.12;100328.06;5053797;28;20045;-59
2023/02/04 10:11:48;;;;;;;4.10;1.33;;;;;;;13.41;49.89;100337.19;5053430;28;20052;-60
2023/02/04 10:14:21;;;;;;;5.07;1.50;;;;;;;13.39;49.95;100347.13;5053593;28;20501;-56
2023/02/04 10:16:54;;;;;;;2.58;1.10;;;;;;;13.36;49.90;100368.81;5053688;28;20048;-57
2023/02/04 10:19:28;;;;;;;6.55;1.80;;;;;;;13.37;50.09;100375.00;5053377;28;20053;-58
2023/02/04 10:21:57;;;;;;;3.17;1.42;;;;;;;13.38;50.33;100382.94;5053352;28;20049;-58
2023/02/04 10:24:29;;;;;;;5.25;1.83;;;;;;;13.41;51.02;100387.22;5052843;28;20041;-59
2023/02/04 10:27:08;;;;;;;5.13;1.45;;;;;;;13.48;51.34;100390.34;5053211;28;20069;-60
2023/02/04 10:29:37;;;;;;;6.82;1.60;;;;;;;13.57;51.77;100387.00;5053321;28;20128;-59
2023/02/04 10:32:05;;;;;;;7.45;1.40;;;;;;;13.69;51.55;100408.44;5053078;28;20132;-58
2023/02/04 10:34:38;;;;;;;5.28;1.30;;;;;;;13.74;51.69;100400.94;5053096;28;20075;-58
2023/02/04 10:37:17;;;;;;;3.75;1.58;;;;;;;13.87;51.67;100405.44;5053085;28;20124;-59
2023/02/04 10:39:49;;;;;;;4.80;1.48;;;;;;;14.01;51.36;100424.94;5053119;28;20053;-60
2023/02/04 10:42:22;;;;;;;6.28;1.50;;;;;;;14.15;51.25;100415.88;5052974;28;20045;-58
2023/02/04 10:44:51;;;;;;;5.25;1.63;;;;;;;14.26;50.97;100424.00;5052891;28;20076;-58
2023/02/04 10:47:21;;;;;;;3.25;1.23;;;;;;;14.39;50.68;100445.47;5052769;28;20060;-56
2023/02/04 10:49:55;;;;;;;3.67;1.20;;;;;;;14.54;50.57;100454.22;5052935;28;20045;-57
2023/02/04 10:52:31;;;;;;;3.80;1.38;;;;;;;14.65;50.46;100466.84;5052745;28;20048;-57
2023/02/04 10:54:59;;;;;;;4.90;1.40;;;;;;;14.73;50.18;100470.69;5052808;28;20045;-58
2023/02/04 10:57:29;;;;;;;6.53;1.92;;;;;;;14.97;51.87;100484.16;5052554;28;20041;-60
2023/02/04 11:00:00;;;;;;;4.93;1.65;;;;;;;15.22;52.33;100488.50;5052447;28;20061;-60
2023/02/04 11:02:43;;;;;;;4.55;1.42;;;;;;;15.48;51.34;100504.50;5052553;28;20155;-59
2023/02/04 11:05:16;;;;;;;6.10;1.80;;;;;;;15.66;50.89;100519.25;5052547;28;20086;-60
2023/02/04 11:07:45;;;;;;;4.07;1.73;;;;;;;15.80;50.52;100510.94;5052440;28;20122;-60
2023/02/04 11:10:18;;;;;;;5.88;1.65;;;;;;;15.91;50.56;100545.09;5052480;28;20123;-58
2023/02/04 11:12:58;;;;;;;4.47;1.42;;;;;;;16.00;50.03;100555.97;5052142;28;20099;-60
2023/02/04 11:15:43;;;;;;;5.15;1.50;;;;;;;16.16;50.00;100546.72;5052410;28;20551;-61
2023/02/04 11:18:24;;;;;;;3.58;1.45;;;;;;;16.29;49.74;100561.78;5052341;28;20059;-59
2023/02/04 11:20:59;;;;;;;2.90;1.27;;;;;;;16.47;49.39;100567.53;5052221;28;20053;-60
2023/02/04 11:23:35;;;;;;;7.80;1.67;;;;;;;16.52;49.48;100568.03;5052354;28;20098;-58
2023/02/04 11:26:06;;;;;;;7.20;1.55;;;;;;;16.63;49.36;100569.88;5052136;28;20148;-54
2023/02/04 11:28:48;;;;;;;8.40;1.70;;;;;;;16.73;49.35;100580.78;5052163;28;20053;-51
2023/02/04 11:31:41;;;;;;;10.57;2.28;;;;;;;16.81;49.36;100594.50;5052083;28;20048;-56
2023/02/04 11:34:26;;;;;;;11.02;1.80;;;;;;;16.88;49.08;100590.31;5052284;28;20413;-60
2023/02/04 11:37:15;;;;;;;9.65;2.20;;;;;;;16.95;48.72;100621.16;5051325;28;20049;-58
2023/02/04 11:39:47;;;;;;;7.97;1.77;;;;;;;17.03;48.67;100634.88;5052031;28;20055;-57
2023/02/04 11:42:20;;;;;;;7.13;1.60;;;;;;;17.12;48.57;100623.34;5052114;28;20466;-55